sensor_id;sensor_type;location;lat;lon;timestamp;temperature;humidity
22469;DHT22;11401;50.792;4.352;2023-08-01T00:00:18;21.30;74.90
22469;DHT22;11401;50.792;4.352;2023-08-01T00:02:46;21.30;74.90
22469;DHT22;11401;50.792;4.352;2023-08-01T00:05:13;21.30;74.80
22469;DHT22;11401;50.792;4.352;2023-08-01T00:07:41;21.30;74.50
22469;DHT22;11401;50.792;4.352;2023-08-01T00:10:08;21.20;74.50
22469;DHT22;11401;50.792;4.352;2023-08-01T00:12:36;21.20;74.60
22469;DHT22;11401;50.792;4.352;2023-08-01T00:15:03;21.20;74.60
22469;DHT22;11401;50.792;4.352;2023-08-01T00:17:30;21.20;74.60
22469;DHT22;11401;50.792;4.352;2023-08-01T00:19:58;21.20;74.60
22469;DHT22;11401;50.792;4.352;2023-08-01T00:22:25;21.20;74.70
22469;DHT22;11401;50.792;4.352;2023-08-01T00:24:52;21.20;74.60
22469;DHT22;11401;50.792;4.352;2023-08-01T00:27:19;21.20;74.60
22469;DHT22;11401;50.792;4.352;2023-08-01T00:29:46;21.10;74.70
22469;DHT22;11401;50.792;4.352;2023-08-01T00:32:13;21.10;74.70
22469;DHT22;11401;50.792;4.352;2023-08-01T00:34:40;21.10;74.80
22469;DHT22;11401;50.792;4.352;2023-08-01T00:37:07;21.10;74.70
22469;DHT22;11401;50.792;4.352;2023-08-01T00:39:34;21.00;74.70
22469;DHT22;11401;50.792;4.352;2023-08-01T00:42:01;21.10;74.70
22469;DHT22;11401;50.792;4.352;2023-08-01T00:44:28;21.10;74.70
22469;DHT22;11401;50.792;4.352;2023-08-01T00:46:56;21.00;74.60
22469;DHT22;11401;50.792;4.352;2023-08-01T00:49:24;21.00;74.50
22469;DHT22;11401;50.792;4.352;2023-08-01T00:51:51;21.00;74.40
22469;DHT22;11401;50.792;4.352;2023-08-01T00:54:19;21.00;74.50
22469;DHT22;11401;50.792;4.352;2023-08-01T00:56:45;21.00;74.40
22469;DHT22;11401;50.792;4.352;2023-08-01T00:59:13;21.00;74.40
22469;DHT22;11401;50.792;4.352;2023-08-01T01:01:40;21.00;74.40
22469;DHT22;11401;50.792;4.352;2023-08-01T01:04:08;21.00;74.40
22469;DHT22;11401;50.792;4.352;2023-08-01T01:06:51;21.00;74.60
22469;DHT22;11401;50.792;4.352;2023-08-01T01:09:19;20.90;74.20
22469;DHT22;11401;50.792;4.352;2023-08-01T01:11:48;20.90;74.40
22469;DHT22;11401;50.792;4.352;2023-08-01T01:14:15;21.00;74.40
22469;DHT22;11401;50.792;4.352;2023-08-01T01:16:42;21.00;74.50
22469;DHT22;11401;50.792;4.352;2023-08-01T01:19:09;21.00;74.50
22469;DHT22;11401;50.792;4.352;2023-08-01T01:21:39;21.00;74.40
22469;DHT22;11401;50.792;4.352;2023-08-01T01:24:08;21.00;74.50
22469;DHT22;11401;50.792;4.352;2023-08-01T01:26:38;20.90;74.50
22469;DHT22;11401;50.792;4.352;2023-08-01T01:29:07;20.90;74.30
22469;DHT22;11401;50.792;4.352;2023-08-01T01:31:37;20.90;74.20
22469;DHT22;11401;50.792;4.352;2023-08-01T01:34:05;20.90;74.20
22469;DHT22;11401;50.792;4.352;2023-08-01T01:36:32;20.90;74.00
22469;DHT22;11401;50.792;4.352;2023-08-01T01:39:01;20.80;74.10
22469;DHT22;11401;50.792;4.352;2023-08-01T01:41:28;20.90;74.40
22469;DHT22;11401;50.792;4.352;2023-08-01T01:43:55;20.80;73.90
22469;DHT22;11401;50.792;4.352;2023-08-01T01:46:22;20.80;74.20
22469;DHT22;11401;50.792;4.352;2023-08-01T01:48:49;20.80;74.20
22469;DHT22;11401;50.792;4.352;2023-08-01T01:51:16;20.80;74.00
22469;DHT22;11401;50.792;4.352;2023-08-01T01:53:43;20.80;73.90
22469;DHT22;11401;50.792;4.352;2023-08-01T01:56:10;20.70;74.20
22469;DHT22;11401;50.792;4.352;2023-08-01T01:58:37;20.70;74.00
22469;DHT22;11401;50.792;4.352;2023-08-01T02:01:04;20.70;74.30
22469;DHT22;11401;50.792;4.352;2023-08-01T02:03:31;20.70;74.00
22469;DHT22;11401;50.792;4.352;2023-08-01T02:05:58;20.70;73.90
22469;DHT22;11401;50.792;4.352;2023-08-01T02:08:25;20.70;73.90
22469;DHT22;11401;50.792;4.352;2023-08-01T02:10:52;20.70;73.80
22469;DHT22;11401;50.792;4.352;2023-08-01T02:13:19;20.70;73.80
22469;DHT22;11401;50.792;4.352;2023-08-01T02:15:46;20.70;73.80
22469;DHT22;11401;50.792;4.352;2023-08-01T02:18:13;20.70;73.80
22469;DHT22;11401;50.792;4.352;2023-08-01T02:20:40;20.70;73.80
22469;DHT22;11401;50.792;4.352;2023-08-01T02:23:07;20.60;73.70
22469;DHT22;11401;50.792;4.352;2023-08-01T02:25:41;20.60;73.80
22469;DHT22;11401;50.792;4.352;2023-08-01T02:28:09;20.60;73.70
22469;DHT22;11401;50.792;4.352;2023-08-01T02:30:36;20.60;73.70
22469;DHT22;11401;50.792;4.352;2023-08-01T02:33:03;20.60;73.70
22469;DHT22;11401;50.792;4.352;2023-08-01T02:35:32;20.50;74.00
22469;DHT22;11401;50.792;4.352;2023-08-01T02:37:59;20.50;73.70
22469;DHT22;11401;50.792;4.352;2023-08-01T02:40:26;20.60;73.70
22469;DHT22;11401;50.792;4.352;2023-08-01T02:42:53;20.60;73.50
22469;DHT22;11401;50.792;4.352;2023-08-01T02:45:20;20.50;73.40
22469;DHT22;11401;50.792;4.352;2023-08-01T02:47:48;20.60;73.40
22469;DHT22;11401;50.792;4.352;2023-08-01T02:50:15;20.50;73.50
22469;DHT22;11401;50.792;4.352;2023-08-01T02:52:42;20.60;73.80
22469;DHT22;11401;50.792;4.352;2023-08-01T02:55:09;20.50;73.50
22469;DHT22;11401;50.792;4.352;2023-08-01T02:57:37;20.60;73.50
22469;DHT22;11401;50.792;4.352;2023-08-01T03:00:04;20.50;73.40
22469;DHT22;11401;50.792;4.352;2023-08-01T03:02:32;20.50;73.30
22469;DHT22;11401;50.792;4.352;2023-08-01T03:04:59;20.60;73.20
22469;DHT22;11401;50.792;4.352;2023-08-01T03:07:26;20.50;73.30
22469;DHT22;11401;50.792;4.352;2023-08-01T03:09:53;20.50;73.10
22469;DHT22;11401;50.792;4.352;2023-08-01T03:12:22;20.50;73.10
22469;DHT22;11401;50.792;4.352;2023-08-01T03:14:49;20.50;73.10
22469;DHT22;11401;50.792;4.352;2023-08-01T03:17:16;20.40;73.30
22469;DHT22;11401;50.792;4.352;2023-08-01T03:19:43;20.50;73.60
22469;DHT22;11401;50.792;4.352;2023-08-01T03:22:10;20.50;73.70
22469;DHT22;11401;50.792;4.352;2023-08-01T03:24:37;20.50;73.50
22469;DHT22;11401;50.792;4.352;2023-08-01T03:27:05;20.50;73.50
22469;DHT22;11401;50.792;4.352;2023-08-01T03:29:32;20.50;74.20
22469;DHT22;11401;50.792;4.352;2023-08-01T03:32:00;20.60;73.70
22469;DHT22;11401;50.792;4.352;2023-08-01T03:34:27;20.60;73.30
22469;DHT22;11401;50.792;4.352;2023-08-01T03:36:54;20.60;73.40
22469;DHT22;11401;50.792;4.352;2023-08-01T03:39:21;20.50;73.20
22469;DHT22;11401;50.792;4.352;2023-08-01T03:41:48;20.50;73.40
22469;DHT22;11401;50.792;4.352;2023-08-01T03:44:15;20.50;73.30
22469;DHT22;11401;50.792;4.352;2023-08-01T03:46:44;20.50;73.30
22469;DHT22;11401;50.792;4.352;2023-08-01T03:49:11;20.50;73.30
22469;DHT22;11401;50.792;4.352;2023-08-01T03:51:38;20.60;73.50
22469;DHT22;11401;50.792;4.352;2023-08-01T03:54:05;20.60;73.50
22469;DHT22;11401;50.792;4.352;2023-08-01T03:56:39;20.50;73.60
22469;DHT22;11401;50.792;4.352;2023-08-01T03:59:12;20.60;73.70
22469;DHT22;11401;50.792;4.352;2023-08-01T04:01:40;20.50;73.20
22469;DHT22;11401;50.792;4.352;2023-08-01T04:04:08;20.50;73.50
22469;DHT22;11401;50.792;4.352;2023-08-01T04:06:35;20.50;73.60
22469;DHT22;11401;50.792;4.352;2023-08-01T04:09:02;20.40;73.50
22469;DHT22;11401;50.792;4.352;2023-08-01T04:11:29;20.40;73.60
22469;DHT22;11401;50.792;4.352;2023-08-01T04:13:56;20.30;73.80
22469;DHT22;11401;50.792;4.352;2023-08-01T04:16:23;20.30;74.30
22469;DHT22;11401;50.792;4.352;2023-08-01T04:18:50;20.30;73.90
22469;DHT22;11401;50.792;4.352;2023-08-01T04:21:18;20.30;73.90
22469;DHT22;11401;50.792;4.352;2023-08-01T04:23:45;20.30;73.70
22469;DHT22;11401;50.792;4.352;2023-08-01T04:26:12;20.30;73.60
22469;DHT22;11401;50.792;4.352;2023-08-01T04:28:39;20.30;73.80
22469;DHT22;11401;50.792;4.352;2023-08-01T04:31:06;20.30;73.80
22469;DHT22;11401;50.792;4.352;2023-08-01T04:33:33;20.30;73.90
22469;DHT22;11401;50.792;4.352;2023-08-01T04:36:00;20.40;73.70
22469;DHT22;11401;50.792;4.352;2023-08-01T04:38:28;20.30;73.50
22469;DHT22;11401;50.792;4.352;2023-08-01T04:40:55;20.30;73.20
22469;DHT22;11401;50.792;4.352;2023-08-01T04:43:22;20.30;73.80
22469;DHT22;11401;50.792;4.352;2023-08-01T04:45:50;20.30;73.70
22469;DHT22;11401;50.792;4.352;2023-08-01T04:48:17;20.40;73.60
22469;DHT22;11401;50.792;4.352;2023-08-01T04:50:44;20.30;73.50
22469;DHT22;11401;50.792;4.352;2023-08-01T04:53:11;20.30;73.60
22469;DHT22;11401;50.792;4.352;2023-08-01T04:55:40;20.30;73.50
22469;DHT22;11401;50.792;4.352;2023-08-01T04:58:07;20.40;73.40
22469;DHT22;11401;50.792;4.352;2023-08-01T05:00:38;20.40;73.60
22469;DHT22;11401;50.792;4.352;2023-08-01T05:03:07;20.40;73.00
22469;DHT22;11401;50.792;4.352;2023-08-01T05:05:34;20.40;73.30
22469;DHT22;11401;50.792;4.352;2023-08-01T05:08:01;20.40;73.00
22469;DHT22;11401;50.792;4.352;2023-08-01T05:10:28;20.40;73.40
22469;DHT22;11401;50.792;4.352;2023-08-01T05:12:55;20.30;72.80
22469;DHT22;11401;50.792;4.352;2023-08-01T05:15:22;20.30;73.50
22469;DHT22;11401;50.792;4.352;2023-08-01T05:17:49;20.40;73.70
22469;DHT22;11401;50.792;4.352;2023-08-01T05:20:16;20.30;73.40
22469;DHT22;11401;50.792;4.352;2023-08-01T05:22:43;20.30;73.70
22469;DHT22;11401;50.792;4.352;2023-08-01T05:25:10;20.40;73.20
22469;DHT22;11401;50.792;4.352;2023-08-01T05:27:37;20.20;73.40
22469;DHT22;11401;50.792;4.352;2023-08-01T05:30:05;20.30;73.50
22469;DHT22;11401;50.792;4.352;2023-08-01T05:32:32;20.30;73.50
22469;DHT22;11401;50.792;4.352;2023-08-01T05:34:59;20.30;73.60
22469;DHT22;11401;50.792;4.352;2023-08-01T05:37:26;20.40;73.60
22469;DHT22;11401;50.792;4.352;2023-08-01T05:39:53;20.40;73.50
22469;DHT22;11401;50.792;4.352;2023-08-01T05:42:20;20.30;73.30
22469;DHT22;11401;50.792;4.352;2023-08-01T05:44:47;20.30;73.60
22469;DHT22;11401;50.792;4.352;2023-08-01T05:47:14;20.30;73.80
22469;DHT22;11401;50.792;4.352;2023-08-01T05:49:42;20.30;73.60
22469;DHT22;11401;50.792;4.352;2023-08-01T05:52:09;20.40;73.50
22469;DHT22;11401;50.792;4.352;2023-08-01T05:54:36;20.40;74.30
22469;DHT22;11401;50.792;4.352;2023-08-01T05:57:04;20.40;73.60
22469;DHT22;11401;50.792;4.352;2023-08-01T05:59:31;20.40;73.40
22469;DHT22;11401;50.792;4.352;2023-08-01T06:01:58;20.40;73.60
22469;DHT22;11401;50.792;4.352;2023-08-01T06:04:26;20.40;73.50
22469;DHT22;11401;50.792;4.352;2023-08-01T06:06:53;20.40;73.30
22469;DHT22;11401;50.792;4.352;2023-08-01T06:09:20;20.40;73.00
22469;DHT22;11401;50.792;4.352;2023-08-01T06:11:50;20.40;73.60
22469;DHT22;11401;50.792;4.352;2023-08-01T06:14:17;20.40;73.50
22469;DHT22;11401;50.792;4.352;2023-08-01T06:16:44;20.40;73.00
22469;DHT22;11401;50.792;4.352;2023-08-01T06:19:12;20.40;73.10
22469;DHT22;11401;50.792;4.352;2023-08-01T06:21:39;20.40;73.20
22469;DHT22;11401;50.792;4.352;2023-08-01T06:24:06;20.40;73.30
22469;DHT22;11401;50.792;4.352;2023-08-01T06:26:34;20.40;73.50
22469;DHT22;11401;50.792;4.352;2023-08-01T06:29:02;20.30;73.80
22469;DHT22;11401;50.792;4.352;2023-08-01T06:31:29;20.40;73.60
22469;DHT22;11401;50.792;4.352;2023-08-01T06:33:56;20.40;74.00
22469;DHT22;11401;50.792;4.352;2023-08-01T06:36:23;20.40;73.60
22469;DHT22;11401;50.792;4.352;2023-08-01T06:38:50;20.40;73.60
22469;DHT22;11401;50.792;4.352;2023-08-01T06:41:17;20.30;73.50
22469;DHT22;11401;50.792;4.352;2023-08-01T06:43:44;20.30;74.30
22469;DHT22;11401;50.792;4.352;2023-08-01T06:46:11;20.60;74.50
22469;DHT22;11401;50.792;4.352;2023-08-01T06:48:38;20.90;74.10
22469;DHT22;11401;50.792;4.352;2023-08-01T06:51:05;21.10;73.20
22469;DHT22;11401;50.792;4.352;2023-08-01T06:53:32;21.10;72.90
22469;DHT22;11401;50.792;4.352;2023-08-01T06:55:59;21.20;72.00
22469;DHT22;11401;50.792;4.352;2023-08-01T06:58:26;21.10;72.50
22469;DHT22;11401;50.792;4.352;2023-08-01T07:00:53;21.00;72.90
22469;DHT22;11401;50.792;4.352;2023-08-01T07:03:20;21.10;72.80
22469;DHT22;11401;50.792;4.352;2023-08-01T07:05:47;21.40;72.30
22469;DHT22;11401;50.792;4.352;2023-08-01T07:08:16;21.40;71.50
22469;DHT22;11401;50.792;4.352;2023-08-01T07:10:43;21.40;70.90
22469;DHT22;11401;50.792;4.352;2023-08-01T07:13:10;21.40;71.30
22469;DHT22;11401;50.792;4.352;2023-08-01T07:15:37;21.50;71.00
22469;DHT22;11401;50.792;4.352;2023-08-01T07:18:04;21.40;70.80
22469;DHT22;11401;50.792;4.352;2023-08-01T07:20:32;21.40;70.50
22469;DHT22;11401;50.792;4.352;2023-08-01T07:22:59;21.40;70.20
22469;DHT22;11401;50.792;4.352;2023-08-01T07:25:26;21.30;70.50
22469;DHT22;11401;50.792;4.352;2023-08-01T07:27:53;21.40;70.80
22469;DHT22;11401;50.792;4.352;2023-08-01T07:30:20;21.50;70.50
22469;DHT22;11401;50.792;4.352;2023-08-01T07:32:47;21.60;70.40
22469;DHT22;11401;50.792;4.352;2023-08-01T07:35:15;21.60;69.70
22469;DHT22;11401;50.792;4.352;2023-08-01T07:37:42;21.70;69.90
22469;DHT22;11401;50.792;4.352;2023-08-01T07:40:10;21.80;69.30
22469;DHT22;11401;50.792;4.352;2023-08-01T07:42:37;21.80;69.50
22469;DHT22;11401;50.792;4.352;2023-08-01T07:45:04;21.70;69.90
22469;DHT22;11401;50.792;4.352;2023-08-01T07:47:31;21.70;70.10
22469;DHT22;11401;50.792;4.352;2023-08-01T07:49:59;21.60;69.30
22469;DHT22;11401;50.792;4.352;2023-08-01T07:52:26;21.70;69.70
22469;DHT22;11401;50.792;4.352;2023-08-01T07:54:53;21.60;69.50
22469;DHT22;11401;50.792;4.352;2023-08-01T07:57:22;21.60;69.70
22469;DHT22;11401;50.792;4.352;2023-08-01T07:59:49;21.50;69.70
22469;DHT22;11401;50.792;4.352;2023-08-01T08:02:16;21.40;70.50
22469;DHT22;11401;50.792;4.352;2023-08-01T08:04:43;21.60;70.50
22469;DHT22;11401;50.792;4.352;2023-08-01T08:07:10;21.60;70.20
22469;DHT22;11401;50.792;4.352;2023-08-01T08:09:37;21.70;69.90
22469;DHT22;11401;50.792;4.352;2023-08-01T08:12:05;21.80;69.10
22469;DHT22;11401;50.792;4.352;2023-08-01T08:14:32;21.80;68.70
22469;DHT22;11401;50.792;4.352;2023-08-01T08:16:59;21.70;68.80
22469;DHT22;11401;50.792;4.352;2023-08-01T08:19:26;21.60;69.10
22469;DHT22;11401;50.792;4.352;2023-08-01T08:21:53;21.70;69.70
22469;DHT22;11401;50.792;4.352;2023-08-01T08:24:20;21.70;69.40
22469;DHT22;11401;50.792;4.352;2023-08-01T08:26:47;21.80;68.90
22469;DHT22;11401;50.792;4.352;2023-08-01T08:29:15;21.90;68.80
22469;DHT22;11401;50.792;4.352;2023-08-01T08:31:42;21.90;68.50
22469;DHT22;11401;50.792;4.352;2023-08-01T08:34:09;21.70;67.90
22469;DHT22;11401;50.792;4.352;2023-08-01T08:36:36;21.80;68.80
22469;DHT22;11401;50.792;4.352;2023-08-01T08:39:03;21.80;68.90
22469;DHT22;11401;50.792;4.352;2023-08-01T08:41:37;21.90;68.50
22469;DHT22;11401;50.792;4.352;2023-08-01T08:44:07;22.10;68.50
22469;DHT22;11401;50.792;4.352;2023-08-01T08:46:41;22.10;68.30
22469;DHT22;11401;50.792;4.352;2023-08-01T08:49:10;22.00;68.50
22469;DHT22;11401;50.792;4.352;2023-08-01T08:51:38;22.00;68.80
22469;DHT22;11401;50.792;4.352;2023-08-01T08:54:06;22.00;68.80
22469;DHT22;11401;50.792;4.352;2023-08-01T08:56:34;22.00;68.50
22469;DHT22;11401;50.792;4.352;2023-08-01T08:59:02;21.90;68.70
22469;DHT22;11401;50.792;4.352;2023-08-01T09:01:29;22.00;68.50
22469;DHT22;11401;50.792;4.352;2023-08-01T09:03:58;22.00;68.90
22469;DHT22;11401;50.792;4.352;2023-08-01T09:06:28;22.00;68.70
22469;DHT22;11401;50.792;4.352;2023-08-01T09:09:03;21.90;68.00
22469;DHT22;11401;50.792;4.352;2023-08-01T09:11:52;21.80;68.90
22469;DHT22;11401;50.792;4.352;2023-08-01T09:14:19;21.90;68.90
22469;DHT22;11401;50.792;4.352;2023-08-01T09:16:47;21.80;68.50
22469;DHT22;11401;50.792;4.352;2023-08-01T09:19:23;21.90;68.60
22469;DHT22;11401;50.792;4.352;2023-08-01T09:21:51;22.00;68.20
22469;DHT22;11401;50.792;4.352;2023-08-01T09:24:19;22.10;67.90
22469;DHT22;11401;50.792;4.352;2023-08-01T09:26:48;22.20;67.70
22469;DHT22;11401;50.792;4.352;2023-08-01T09:29:19;22.20;67.40
22469;DHT22;11401;50.792;4.352;2023-08-01T09:31:46;22.00;67.40
22469;DHT22;11401;50.792;4.352;2023-08-01T09:34:25;22.00;68.20
22469;DHT22;11401;50.792;4.352;2023-08-01T09:37:01;22.00;67.90
22469;DHT22;11401;50.792;4.352;2023-08-01T09:39:29;22.00;67.90
22469;DHT22;11401;50.792;4.352;2023-08-01T09:42:01;22.00;68.00
22469;DHT22;11401;50.792;4.352;2023-08-01T09:44:29;22.00;67.70
22469;DHT22;11401;50.792;4.352;2023-08-01T09:47:00;22.10;67.60
22469;DHT22;11401;50.792;4.352;2023-08-01T09:49:29;22.20;67.40
22469;DHT22;11401;50.792;4.352;2023-08-01T09:51:57;22.20;66.90
22469;DHT22;11401;50.792;4.352;2023-08-01T09:54:24;22.20;67.50
22469;DHT22;11401;50.792;4.352;2023-08-01T09:56:53;22.20;67.50
22469;DHT22;11401;50.792;4.352;2023-08-01T09:59:21;22.30;67.50
22469;DHT22;11401;50.792;4.352;2023-08-01T10:01:51;22.30;67.30
22469;DHT22;11401;50.792;4.352;2023-08-01T10:04:27;22.30;67.20
22469;DHT22;11401;50.792;4.352;2023-08-01T10:06:57;22.30;67.20
22469;DHT22;11401;50.792;4.352;2023-08-01T10:09:26;22.30;67.50
22469;DHT22;11401;50.792;4.352;2023-08-01T10:11:57;22.40;67.30
22469;DHT22;11401;50.792;4.352;2023-08-01T10:14:25;22.40;67.00
22469;DHT22;11401;50.792;4.352;2023-08-01T10:16:54;22.30;67.50
22469;DHT22;11401;50.792;4.352;2023-08-01T10:19:22;22.20;67.70
22469;DHT22;11401;50.792;4.352;2023-08-01T10:21:50;22.30;67.80
22469;DHT22;11401;50.792;4.352;2023-08-01T10:24:23;22.40;67.60
22469;DHT22;11401;50.792;4.352;2023-08-01T10:26:51;22.30;67.50
22469;DHT22;11401;50.792;4.352;2023-08-01T10:29:18;22.30;67.50
22469;DHT22;11401;50.792;4.352;2023-08-01T10:31:55;22.30;67.30
22469;DHT22;11401;50.792;4.352;2023-08-01T10:34:22;22.50;67.60
22469;DHT22;11401;50.792;4.352;2023-08-01T10:36:56;22.50;67.00
22469;DHT22;11401;50.792;4.352;2023-08-01T10:39:25;22.50;66.40
22469;DHT22;11401;50.792;4.352;2023-08-01T10:42:03;22.40;66.40
22469;DHT22;11401;50.792;4.352;2023-08-01T10:44:32;22.30;66.60
22469;DHT22;11401;50.792;4.352;2023-08-01T10:47:03;22.20;66.90
22469;DHT22;11401;50.792;4.352;2023-08-01T10:49:37;22.30;66.90
22469;DHT22;11401;50.792;4.352;2023-08-01T10:54:46;22.40;66.30
22469;DHT22;11401;50.792;4.352;2023-08-01T10:57:17;22.50;66.60
22469;DHT22;11401;50.792;4.352;2023-08-01T10:59:45;22.50;66.60
22469;DHT22;11401;50.792;4.352;2023-08-01T11:02:18;22.60;66.60
22469;DHT22;11401;50.792;4.352;2023-08-01T11:04:55;22.50;66.60
22469;DHT22;11401;50.792;4.352;2023-08-01T11:07:22;22.60;66.50
22469;DHT22;11401;50.792;4.352;2023-08-01T11:09:49;22.50;64.30
22469;DHT22;11401;50.792;4.352;2023-08-01T11:12:17;22.30;65.50
22469;DHT22;11401;50.792;4.352;2023-08-01T11:14:46;22.50;66.30
22469;DHT22;11401;50.792;4.352;2023-08-01T11:17:14;22.50;66.40
22469;DHT22;11401;50.792;4.352;2023-08-01T11:19:41;22.60;65.60
22469;DHT22;11401;50.792;4.352;2023-08-01T11:22:09;22.50;64.30
22469;DHT22;11401;50.792;4.352;2023-08-01T11:24:37;22.30;64.70
22469;DHT22;11401;50.792;4.352;2023-08-01T11:27:04;22.20;66.40
22469;DHT22;11401;50.792;4.352;2023-08-01T11:29:38;22.20;66.80
22469;DHT22;11401;50.792;4.352;2023-08-01T11:32:07;22.20;65.00
22469;DHT22;11401;50.792;4.352;2023-08-01T11:34:43;22.30;66.20
22469;DHT22;11401;50.792;4.352;2023-08-01T11:37:18;22.40;64.30
22469;DHT22;11401;50.792;4.352;2023-08-01T11:39:47;22.40;65.10
22469;DHT22;11401;50.792;4.352;2023-08-01T11:42:17;22.40;65.70
22469;DHT22;11401;50.792;4.352;2023-08-01T11:44:44;22.40;65.50
22469;DHT22;11401;50.792;4.352;2023-08-01T11:47:16;22.50;65.10
22469;DHT22;11401;50.792;4.352;2023-08-01T11:49:49;22.50;65.30
22469;DHT22;11401;50.792;4.352;2023-08-01T11:52:27;22.50;64.40
22469;DHT22;11401;50.792;4.352;2023-08-01T11:54:55;22.60;63.40
22469;DHT22;11401;50.792;4.352;2023-08-01T11:57:22;22.50;64.30
22469;DHT22;11401;50.792;4.352;2023-08-01T11:59:54;22.50;64.70
22469;DHT22;11401;50.792;4.352;2023-08-01T12:02:29;22.50;65.00
22469;DHT22;11401;50.792;4.352;2023-08-01T12:04:58;22.50;63.50
22469;DHT22;11401;50.792;4.352;2023-08-01T12:07:26;22.40;63.40
22469;DHT22;11401;50.792;4.352;2023-08-01T12:10:00;22.50;63.60
22469;DHT22;11401;50.792;4.352;2023-08-01T12:12:28;22.50;63.80
22469;DHT22;11401;50.792;4.352;2023-08-01T12:14:55;22.40;63.60
22469;DHT22;11401;50.792;4.352;2023-08-01T12:17:23;22.30;64.30
22469;DHT22;11401;50.792;4.352;2023-08-01T12:19:50;22.30;65.20
22469;DHT22;11401;50.792;4.352;2023-08-01T12:22:17;22.40;65.40
22469;DHT22;11401;50.792;4.352;2023-08-01T12:24:44;22.40;65.50
22469;DHT22;11401;50.792;4.352;2023-08-01T12:27:11;22.40;64.20
22469;DHT22;11401;50.792;4.352;2023-08-01T12:29:38;22.30;63.60
22469;DHT22;11401;50.792;4.352;2023-08-01T12:32:05;22.30;62.70
22469;DHT22;11401;50.792;4.352;2023-08-01T12:34:35;22.20;63.10
22469;DHT22;11401;50.792;4.352;2023-08-01T12:37:03;22.20;64.10
22469;DHT22;11401;50.792;4.352;2023-08-01T12:39:30;22.30;65.10
22469;DHT22;11401;50.792;4.352;2023-08-01T12:41:57;22.30;64.00
22469;DHT22;11401;50.792;4.352;2023-08-01T12:44:24;22.30;63.70
22469;DHT22;11401;50.792;4.352;2023-08-01T12:46:51;22.30;63.50
22469;DHT22;11401;50.792;4.352;2023-08-01T12:49:18;22.20;64.00
22469;DHT22;11401;50.792;4.352;2023-08-01T12:51:46;22.30;62.30
22469;DHT22;11401;50.792;4.352;2023-08-01T12:54:16;22.40;61.90
22469;DHT22;11401;50.792;4.352;2023-08-01T12:56:43;22.50;62.80
22469;DHT22;11401;50.792;4.352;2023-08-01T12:59:10;22.60;62.70
22469;DHT22;11401;50.792;4.352;2023-08-01T13:01:37;22.60;62.20
22469;DHT22;11401;50.792;4.352;2023-08-01T13:04:05;22.50;62.60
22469;DHT22;11401;50.792;4.352;2023-08-01T13:06:32;22.50;62.30
22469;DHT22;11401;50.792;4.352;2023-08-01T13:08:59;22.60;63.50
22469;DHT22;11401;50.792;4.352;2023-08-01T13:11:26;22.60;60.70
22469;DHT22;11401;50.792;4.352;2023-08-01T13:13:53;22.60;62.10
22469;DHT22;11401;50.792;4.352;2023-08-01T13:16:20;22.80;62.80
22469;DHT22;11401;50.792;4.352;2023-08-01T13:18:47;22.70;61.90
22469;DHT22;11401;50.792;4.352;2023-08-01T13:21:15;22.60;62.60
22469;DHT22;11401;50.792;4.352;2023-08-01T13:23:42;22.50;60.70
22469;DHT22;11401;50.792;4.352;2023-08-01T13:26:09;22.30;63.00
22469;DHT22;11401;50.792;4.352;2023-08-01T13:28:36;22.40;63.40
22469;DHT22;11401;50.792;4.352;2023-08-01T13:31:03;22.40;63.40
22469;DHT22;11401;50.792;4.352;2023-08-01T13:33:30;22.40;62.50
22469;DHT22;11401;50.792;4.352;2023-08-01T13:35:57;22.40;63.30
22469;DHT22;11401;50.792;4.352;2023-08-01T13:38:26;22.30;63.60
22469;DHT22;11401;50.792;4.352;2023-08-01T13:40:53;22.30;62.60
22469;DHT22;11401;50.792;4.352;2023-08-01T13:43:20;22.40;63.50
22469;DHT22;11401;50.792;4.352;2023-08-01T13:45:47;22.50;63.80
22469;DHT22;11401;50.792;4.352;2023-08-01T13:48:14;22.50;63.00
22469;DHT22;11401;50.792;4.352;2023-08-01T13:50:41;22.40;62.80
22469;DHT22;11401;50.792;4.352;2023-08-01T13:53:08;22.50;64.00
22469;DHT22;11401;50.792;4.352;2023-08-01T13:55:40;22.50;63.10
22469;DHT22;11401;50.792;4.352;2023-08-01T13:58:07;22.60;62.90
22469;DHT22;11401;50.792;4.352;2023-08-01T14:00:34;22.50;63.00
22469;DHT22;11401;50.792;4.352;2023-08-01T14:03:01;22.40;59.90
22469;DHT22;11401;50.792;4.352;2023-08-01T14:05:29;22.30;61.50
22469;DHT22;11401;50.792;4.352;2023-08-01T14:07:56;22.20;60.40
22469;DHT22;11401;50.792;4.352;2023-08-01T14:10:23;22.30;61.50
22469;DHT22;11401;50.792;4.352;2023-08-01T14:12:50;22.40;60.90
22469;DHT22;11401;50.792;4.352;2023-08-01T14:15:17;22.50;60.20
22469;DHT22;11401;50.792;4.352;2023-08-01T14:17:45;22.40;61.40
22469;DHT22;11401;50.792;4.352;2023-08-01T14:20:12;22.40;60.10
22469;DHT22;11401;50.792;4.352;2023-08-01T14:22:41;22.40;62.10
22469;DHT22;11401;50.792;4.352;2023-08-01T14:25:09;22.20;61.50
22469;DHT22;11401;50.792;4.352;2023-08-01T14:27:36;22.20;62.60
22469;DHT22;11401;50.792;4.352;2023-08-01T14:30:04;22.20;61.10
22469;DHT22;11401;50.792;4.352;2023-08-01T14:32:37;22.30;61.40
22469;DHT22;11401;50.792;4.352;2023-08-01T14:35:05;22.30;60.70
22469;DHT22;11401;50.792;4.352;2023-08-01T14:37:32;22.50;61.90
22469;DHT22;11401;50.792;4.352;2023-08-01T14:39:59;22.50;60.70
22469;DHT22;11401;50.792;4.352;2023-08-01T14:42:26;22.50;60.90
22469;DHT22;11401;50.792;4.352;2023-08-01T14:44:53;22.40;60.00
22469;DHT22;11401;50.792;4.352;2023-08-01T14:47:21;22.50;61.40
22469;DHT22;11401;50.792;4.352;2023-08-01T14:49:49;22.50;61.60
22469;DHT22;11401;50.792;4.352;2023-08-01T14:52:16;22.60;61.20
22469;DHT22;11401;50.792;4.352;2023-08-01T14:54:43;22.50;60.50
22469;DHT22;11401;50.792;4.352;2023-08-01T14:57:10;22.30;61.90
22469;DHT22;11401;50.792;4.352;2023-08-01T14:59:37;22.30;63.00
22469;DHT22;11401;50.792;4.352;2023-08-01T15:02:05;22.20;63.30
22469;DHT22;11401;50.792;4.352;2023-08-01T15:04:36;22.30;62.20
22469;DHT22;11401;50.792;4.352;2023-08-01T15:07:03;22.30;62.00
22469;DHT22;11401;50.792;4.352;2023-08-01T15:09:31;22.30;62.80
22469;DHT22;11401;50.792;4.352;2023-08-01T15:11:58;22.50;61.80
22469;DHT22;11401;50.792;4.352;2023-08-01T15:14:25;22.60;61.80
22469;DHT22;11401;50.792;4.352;2023-08-01T15:16:53;22.60;59.10
22469;DHT22;11401;50.792;4.352;2023-08-01T15:19:20;22.60;59.90
22469;DHT22;11401;50.792;4.352;2023-08-01T15:21:47;22.50;60.60
22469;DHT22;11401;50.792;4.352;2023-08-01T15:24:14;22.60;60.10
22469;DHT22;11401;50.792;4.352;2023-08-01T15:26:41;22.60;59.80
22469;DHT22;11401;50.792;4.352;2023-08-01T15:29:08;22.70;61.40
22469;DHT22;11401;50.792;4.352;2023-08-01T15:31:36;22.70;61.90
22469;DHT22;11401;50.792;4.352;2023-08-01T15:34:03;22.60;61.20
22469;DHT22;11401;50.792;4.352;2023-08-01T15:36:30;22.70;61.50